Rootstown, Ohio
Current Conditions -  °F | °C
As of 3:57 PM on Thursday 23 Oct 2014 (Local Time) from KPOV Reporting Station
Scattered Clouds Scattered Clouds  
Wind Chill: 55°   Ceiling: Unl
Heat Index: 55°   Visibility: 10mi
Dew Point: 42°   Wind: 7mph
Humidity: 60%   Direction: 330°NNW
Pressure: 30.12"   Gusts: NA
Location:  41.1°N, 81.24°W
Report Text: KPOV 231957Z AUTO 33006KT 10SM SCT025 13/05 A3012 RMK AO2 T01290053
Loading
Personal Weather Stations






























Interactive Weather Map
Tropical Storm Tracking
New forecast layout! Learn more

10-Day Weather Forecast

Advertisements
Track Severe Weather on mobile